sensor_id;sensor_type;location;lat;lon;timestamp;P1;durP1;ratioP1;P2;durP2;ratioP2
60502;SDS011;51448;51.660;5.824;2023-03-24T00:01:24;5.75;;;2.58;;
60502;SDS011;51448;51.660;5.824;2023-03-24T00:03:52;6.93;;;2.67;;
60502;SDS011;51448;51.660;5.824;2023-03-24T00:06:20;6.95;;;2.50;;
60502;SDS011;51448;51.660;5.824;2023-03-24T00:08:49;6.93;;;2.53;;
60502;SDS011;51448;51.660;5.824;2023-03-24T00:11:18;6.85;;;2.63;;
60502;SDS011;51448;51.660;5.824;2023-03-24T00:13:47;6.72;;;2.67;;
60502;SDS011;51448;51.660;5.824;2023-03-24T00:16:17;7.60;;;2.30;;
60502;SDS011;51448;51.660;5.824;2023-03-24T00:18:46;6.97;;;2.90;;
60502;SDS011;51448;51.660;5.824;2023-03-24T00:21:20;6.88;;;2.80;;
60502;SDS011;51448;51.660;5.824;2023-03-24T00:26:22;6.20;;;2.50;;
60502;SDS011;51448;51.660;5.824;2023-03-24T00:28:52;6.05;;;2.83;;
60502;SDS011;51448;51.660;5.824;2023-03-24T00:31:21;6.28;;;2.67;;
60502;SDS011;51448;51.660;5.824;2023-03-24T00:33:51;8.40;;;2.70;;
60502;SDS011;51448;51.660;5.824;2023-03-24T00:36:19;7.03;;;2.60;;
60502;SDS011;51448;51.660;5.824;2023-03-24T00:41:20;5.85;;;2.65;;
60502;SDS011;51448;51.660;5.824;2023-03-24T00:43:52;6.93;;;2.65;;
60502;SDS011;51448;51.660;5.824;2023-03-24T00:46:25;7.45;;;3.22;;
60502;SDS011;51448;51.660;5.824;2023-03-24T00:48:59;7.32;;;2.83;;
60502;SDS011;51448;51.660;5.824;2023-03-24T00:51:33;5.07;;;2.72;;
60502;SDS011;51448;51.660;5.824;2023-03-24T00:54:06;6.93;;;2.58;;
60502;SDS011;51448;51.660;5.824;2023-03-24T00:56:37;6.38;;;2.70;;
60502;SDS011;51448;51.660;5.824;2023-03-24T00:59:07;6.70;;;3.00;;
60502;SDS011;51448;51.660;5.824;2023-03-24T01:01:37;7.63;;;2.80;;
60502;SDS011;51448;51.660;5.824;2023-03-24T01:04:07;7.73;;;2.63;;
60502;SDS011;51448;51.660;5.824;2023-03-24T01:06:37;5.80;;;2.50;;
60502;SDS011;51448;51.660;5.824;2023-03-24T01:09:06;6.63;;;2.45;;
60502;SDS011;51448;51.660;5.824;2023-03-24T01:11:36;7.35;;;2.72;;
60502;SDS011;51448;51.660;5.824;2023-03-24T01:14:08;7.90;;;2.60;;
60502;SDS011;51448;51.660;5.824;2023-03-24T01:16:38;5.13;;;2.63;;
60502;SDS011;51448;51.660;5.824;2023-03-24T01:19:07;6.32;;;2.85;;
60502;SDS011;51448;51.660;5.824;2023-03-24T01:21:36;4.70;;;2.30;;
60502;SDS011;51448;51.660;5.824;2023-03-24T01:24:05;4.82;;;2.50;;
60502;SDS011;51448;51.660;5.824;2023-03-24T01:26:34;5.65;;;2.88;;
60502;SDS011;51448;51.660;5.824;2023-03-24T01:29:02;6.75;;;2.35;;
60502;SDS011;51448;51.660;5.824;2023-03-24T01:31:30;5.03;;;2.40;;
60502;SDS011;51448;51.660;5.824;2023-03-24T01:33:58;6.78;;;2.47;;
60502;SDS011;51448;51.660;5.824;2023-03-24T01:36:25;6.05;;;2.83;;
60502;SDS011;51448;51.660;5.824;2023-03-24T01:38:54;6.70;;;2.38;;
60502;SDS011;51448;51.660;5.824;2023-03-24T01:41:25;6.20;;;2.40;;
60502;SDS011;51448;51.660;5.824;2023-03-24T01:43:59;5.40;;;2.28;;
60502;SDS011;51448;51.660;5.824;2023-03-24T01:46:27;5.18;;;2.40;;
60502;SDS011;51448;51.660;5.824;2023-03-24T01:51:33;5.05;;;2.50;;
60502;SDS011;51448;51.660;5.824;2023-03-24T01:54:16;8.18;;;2.95;;
60502;SDS011;51448;51.660;5.824;2023-03-24T01:57:07;5.68;;;2.50;;
60502;SDS011;51448;51.660;5.824;2023-03-24T01:59:44;5.63;;;2.42;;
60502;SDS011;51448;51.660;5.824;2023-03-24T02:02:41;5.78;;;2.45;;
60502;SDS011;51448;51.660;5.824;2023-03-24T02:05:22;4.75;;;2.28;;
60502;SDS011;51448;51.660;5.824;2023-03-24T02:10:54;5.68;;;2.75;;
60502;SDS011;51448;51.660;5.824;2023-03-24T02:13:32;6.35;;;2.72;;
60502;SDS011;51448;51.660;5.824;2023-03-24T02:24:50;7.28;;;2.60;;
60502;SDS011;51448;51.660;5.824;2023-03-24T02:28:03;4.75;;;2.47;;
60502;SDS011;51448;51.660;5.824;2023-03-24T02:31:05;5.25;;;2.90;;
60502;SDS011;51448;51.660;5.824;2023-03-24T02:45:36;5.83;;;2.87;;
60502;SDS011;51448;51.660;5.824;2023-03-24T02:48:31;6.13;;;2.97;;
60502;SDS011;51448;51.660;5.824;2023-03-24T02:51:10;5.53;;;2.83;;
60502;SDS011;51448;51.660;5.824;2023-03-24T02:56:44;5.82;;;2.97;;
60502;SDS011;51448;51.660;5.824;2023-03-24T03:00:01;6.72;;;3.13;;
60502;SDS011;51448;51.660;5.824;2023-03-24T03:03:05;6.80;;;3.28;;
60502;SDS011;51448;51.660;5.824;2023-03-24T03:05:43;6.03;;;2.53;;
60502;SDS011;51448;51.660;5.824;2023-03-24T03:08:20;6.28;;;2.85;;
60502;SDS011;51448;51.660;5.824;2023-03-24T03:10:51;6.03;;;2.90;;
60502;SDS011;51448;51.660;5.824;2023-03-24T03:13:31;6.95;;;2.70;;
60502;SDS011;51448;51.660;5.824;2023-03-24T03:16:16;5.00;;;2.88;;
60502;SDS011;51448;51.660;5.824;2023-03-24T03:18:56;5.15;;;2.72;;
60502;SDS011;51448;51.660;5.824;2023-03-24T03:21:31;5.43;;;2.67;;
60502;SDS011;51448;51.660;5.824;2023-03-24T03:24:25;5.28;;;2.75;;
60502;SDS011;51448;51.660;5.824;2023-03-24T03:27:07;5.63;;;2.60;;
60502;SDS011;51448;51.660;5.824;2023-03-24T03:29:46;4.55;;;2.20;;
60502;SDS011;51448;51.660;5.824;2023-03-24T03:32:24;5.78;;;2.83;;
60502;SDS011;51448;51.660;5.824;2023-03-24T03:35:09;5.60;;;2.67;;
60502;SDS011;51448;51.660;5.824;2023-03-24T03:38:21;5.47;;;2.53;;
60502;SDS011;51448;51.660;5.824;2023-03-24T03:41:03;5.05;;;1.90;;
60502;SDS011;51448;51.660;5.824;2023-03-24T03:43:35;3.50;;;1.15;;
60502;SDS011;51448;51.660;5.824;2023-03-24T03:46:05;3.33;;;1.30;;
60502;SDS011;51448;51.660;5.824;2023-03-24T03:48:36;3.40;;;1.17;;
60502;SDS011;51448;51.660;5.824;2023-03-24T03:51:07;5.00;;;1.00;;
60502;SDS011;51448;51.660;5.824;2023-03-24T03:53:49;5.40;;;1.00;;
60502;SDS011;51448;51.660;5.824;2023-03-24T03:56:23;3.85;;;0.98;;
60502;SDS011;51448;51.660;5.824;2023-03-24T03:59:32;3.92;;;0.90;;
60502;SDS011;51448;51.660;5.824;2023-03-24T04:05:36;5.53;;;1.38;;
60502;SDS011;51448;51.660;5.824;2023-03-24T04:15:42;7.57;;;1.80;;
60502;SDS011;51448;51.660;5.824;2023-03-24T04:20:58;9.35;;;2.47;;
60502;SDS011;51448;51.660;5.824;2023-03-24T04:24:18;6.97;;;2.20;;
60502;SDS011;51448;51.660;5.824;2023-03-24T04:30:19;8.57;;;2.17;;
60502;SDS011;51448;51.660;5.824;2023-03-24T04:33:00;10.23;;;2.80;;
60502;SDS011;51448;51.660;5.824;2023-03-24T04:35:37;6.97;;;3.03;;
60502;SDS011;51448;51.660;5.824;2023-03-24T04:38:22;8.83;;;3.77;;
60502;SDS011;51448;51.660;5.824;2023-03-24T04:41:08;9.02;;;4.20;;
60502;SDS011;51448;51.660;5.824;2023-03-24T04:43:38;12.20;;;5.10;;
60502;SDS011;51448;51.660;5.824;2023-03-24T04:46:08;13.07;;;4.75;;
60502;SDS011;51448;51.660;5.824;2023-03-24T04:48:51;10.77;;;4.93;;
60502;SDS011;51448;51.660;5.824;2023-03-24T04:51:24;10.05;;;4.13;;
60502;SDS011;51448;51.660;5.824;2023-03-24T04:54:02;11.40;;;4.43;;
60502;SDS011;51448;51.660;5.824;2023-03-24T04:56:38;12.02;;;4.30;;
60502;SDS011;51448;51.660;5.824;2023-03-24T04:59:43;14.32;;;4.45;;
60502;SDS011;51448;51.660;5.824;2023-03-24T05:02:12;12.98;;;4.38;;
60502;SDS011;51448;51.660;5.824;2023-03-24T05:04:49;12.65;;;4.30;;
60502;SDS011;51448;51.660;5.824;2023-03-24T05:07:32;11.45;;;3.90;;
60502;SDS011;51448;51.660;5.824;2023-03-24T05:10:04;11.10;;;3.90;;
60502;SDS011;51448;51.660;5.824;2023-03-24T05:12:38;11.85;;;4.20;;
60502;SDS011;51448;51.660;5.824;2023-03-24T05:15:19;12.20;;;3.70;;
60502;SDS011;51448;51.660;5.824;2023-03-24T05:17:51;11.35;;;3.53;;
60502;SDS011;51448;51.660;5.824;2023-03-24T05:20:23;11.82;;;3.33;;
60502;SDS011;51448;51.660;5.824;2023-03-24T05:22:53;9.30;;;2.65;;
60502;SDS011;51448;51.660;5.824;2023-03-24T05:25:21;9.05;;;2.90;;
60502;SDS011;51448;51.660;5.824;2023-03-24T05:27:48;11.60;;;3.08;;
60502;SDS011;51448;51.660;5.824;2023-03-24T05:30:23;10.65;;;2.58;;
60502;SDS011;51448;51.660;5.824;2023-03-24T05:32:56;13.07;;;2.88;;
60502;SDS011;51448;51.660;5.824;2023-03-24T05:35:24;9.43;;;2.60;;
60502;SDS011;51448;51.660;5.824;2023-03-24T05:37:53;9.50;;;2.45;;
60502;SDS011;51448;51.660;5.824;2023-03-24T05:40:21;12.98;;;2.80;;
60502;SDS011;51448;51.660;5.824;2023-03-24T05:43:02;10.82;;;3.28;;
60502;SDS011;51448;51.660;5.824;2023-03-24T05:45:35;10.52;;;2.90;;
60502;SDS011;51448;51.660;5.824;2023-03-24T05:48:05;9.57;;;3.03;;
60502;SDS011;51448;51.660;5.824;2023-03-24T05:50:56;10.77;;;3.10;;
60502;SDS011;51448;51.660;5.824;2023-03-24T05:53:24;10.57;;;3.10;;
60502;SDS011;51448;51.660;5.824;2023-03-24T05:56:15;12.13;;;3.35;;
60502;SDS011;51448;51.660;5.824;2023-03-24T05:58:58;12.35;;;3.40;;
60502;SDS011;51448;51.660;5.824;2023-03-24T06:01:46;10.40;;;3.10;;
60502;SDS011;51448;51.660;5.824;2023-03-24T06:04:26;11.18;;;4.13;;
60502;SDS011;51448;51.660;5.824;2023-03-24T06:07:03;10.55;;;2.80;;
60502;SDS011;51448;51.660;5.824;2023-03-24T06:09:34;10.85;;;2.88;;
60502;SDS011;51448;51.660;5.824;2023-03-24T06:12:07;13.35;;;3.55;;
60502;SDS011;51448;51.660;5.824;2023-03-24T06:14:40;10.32;;;3.20;;
60502;SDS011;51448;51.660;5.824;2023-03-24T06:17:11;10.23;;;3.22;;
60502;SDS011;51448;51.660;5.824;2023-03-24T06:19:42;11.60;;;2.70;;
60502;SDS011;51448;51.660;5.824;2023-03-24T06:22:38;9.95;;;3.00;;
60502;SDS011;51448;51.660;5.824;2023-03-24T06:25:11;11.50;;;3.40;;
60502;SDS011;51448;51.660;5.824;2023-03-24T06:27:46;13.23;;;3.10;;
60502;SDS011;51448;51.660;5.824;2023-03-24T06:30:19;10.98;;;3.30;;
60502;SDS011;51448;51.660;5.824;2023-03-24T06:32:47;14.18;;;2.88;;
60502;SDS011;51448;51.660;5.824;2023-03-24T06:35:16;10.68;;;2.38;;
60502;SDS011;51448;51.660;5.824;2023-03-24T06:37:50;13.20;;;3.58;;
60502;SDS011;51448;51.660;5.824;2023-03-24T06:40:18;13.00;;;2.97;;
60502;SDS011;51448;51.660;5.824;2023-03-24T06:42:52;12.50;;;2.85;;
60502;SDS011;51448;51.660;5.824;2023-03-24T06:45:20;11.77;;;2.58;;
60502;SDS011;51448;51.660;5.824;2023-03-24T06:47:50;12.35;;;2.42;;
60502;SDS011;51448;51.660;5.824;2023-03-24T06:50:24;14.25;;;2.60;;
60502;SDS011;51448;51.660;5.824;2023-03-24T06:52:56;12.23;;;2.38;;
60502;SDS011;51448;51.660;5.824;2023-03-24T06:55:26;14.80;;;3.15;;
60502;SDS011;51448;51.660;5.824;2023-03-24T06:57:56;12.07;;;2.00;;
60502;SDS011;51448;51.660;5.824;2023-03-24T07:00:29;15.23;;;2.90;;
60502;SDS011;51448;51.660;5.824;2023-03-24T07:03:15;15.60;;;2.55;;
60502;SDS011;51448;51.660;5.824;2023-03-24T07:06:01;10.10;;;2.83;;
60502;SDS011;51448;51.660;5.824;2023-03-24T07:08:29;14.05;;;2.47;;
60502;SDS011;51448;51.660;5.824;2023-03-24T07:11:05;13.32;;;2.63;;
60502;SDS011;51448;51.660;5.824;2023-03-24T07:13:38;10.55;;;2.33;;
60502;SDS011;51448;51.660;5.824;2023-03-24T07:16:07;13.27;;;2.30;;
60502;SDS011;51448;51.660;5.824;2023-03-24T07:18:37;11.82;;;2.63;;
60502;SDS011;51448;51.660;5.824;2023-03-24T07:21:06;14.80;;;2.80;;
60502;SDS011;51448;51.660;5.824;2023-03-24T07:23:35;10.75;;;2.72;;
60502;SDS011;51448;51.660;5.824;2023-03-24T07:26:19;15.00;;;2.72;;
60502;SDS011;51448;51.660;5.824;2023-03-24T07:28:48;13.88;;;2.83;;
60502;SDS011;51448;51.660;5.824;2023-03-24T07:31:42;15.30;;;2.80;;
60502;SDS011;51448;51.660;5.824;2023-03-24T07:34:13;13.77;;;2.85;;
60502;SDS011;51448;51.660;5.824;2023-03-24T07:36:41;12.88;;;2.47;;
60502;SDS011;51448;51.660;5.824;2023-03-24T07:39:15;13.55;;;3.28;;
60502;SDS011;51448;51.660;5.824;2023-03-24T07:41:43;17.35;;;2.60;;
60502;SDS011;51448;51.660;5.824;2023-03-24T07:44:21;16.45;;;2.72;;
60502;SDS011;51448;51.660;5.824;2023-03-24T07:46:49;16.77;;;2.53;;
60502;SDS011;51448;51.660;5.824;2023-03-24T07:49:17;11.55;;;2.10;;
60502;SDS011;51448;51.660;5.824;2023-03-24T07:52:07;13.88;;;3.15;;
60502;SDS011;51448;51.660;5.824;2023-03-24T07:54:38;14.98;;;2.22;;
60502;SDS011;51448;51.660;5.824;2023-03-24T07:57:06;14.00;;;2.40;;
60502;SDS011;51448;51.660;5.824;2023-03-24T07:59:37;12.32;;;2.58;;
60502;SDS011;51448;51.660;5.824;2023-03-24T08:02:25;12.57;;;2.88;;
60502;SDS011;51448;51.660;5.824;2023-03-24T08:05:12;15.43;;;3.15;;
60502;SDS011;51448;51.660;5.824;2023-03-24T08:07:45;16.23;;;3.50;;
60502;SDS011;51448;51.660;5.824;2023-03-24T08:10:21;13.63;;;2.65;;
60502;SDS011;51448;51.660;5.824;2023-03-24T08:12:53;15.40;;;2.75;;
60502;SDS011;51448;51.660;5.824;2023-03-24T08:15:23;13.10;;;2.67;;
60502;SDS011;51448;51.660;5.824;2023-03-24T08:21:59;13.27;;;2.92;;
60502;SDS011;51448;51.660;5.824;2023-03-24T08:24:46;16.00;;;2.80;;
60502;SDS011;51448;51.660;5.824;2023-03-24T08:27:39;14.88;;;2.85;;
60502;SDS011;51448;51.660;5.824;2023-03-24T08:30:29;15.90;;;3.03;;
60502;SDS011;51448;51.660;5.824;2023-03-24T08:32:58;14.40;;;2.85;;
60502;SDS011;51448;51.660;5.824;2023-03-24T08:37:59;14.85;;;3.25;;
60502;SDS011;51448;51.660;5.824;2023-03-24T08:40:33;15.30;;;3.17;;
60502;SDS011;51448;51.660;5.824;2023-03-24T08:43:23;14.38;;;2.53;;
60502;SDS011;51448;51.660;5.824;2023-03-24T08:45:51;12.43;;;2.30;;
60502;SDS011;51448;51.660;5.824;2023-03-24T08:48:19;12.20;;;2.75;;
60502;SDS011;51448;51.660;5.824;2023-03-24T08:50:48;14.15;;;3.13;;
60502;SDS011;51448;51.660;5.824;2023-03-24T08:53:16;13.93;;;2.90;;
60502;SDS011;51448;51.660;5.824;2023-03-24T08:55:44;12.55;;;2.58;;
60502;SDS011;51448;51.660;5.824;2023-03-24T08:58:16;14.55;;;3.15;;
60502;SDS011;51448;51.660;5.824;2023-03-24T09:00:48;13.98;;;2.53;;
60502;SDS011;51448;51.660;5.824;2023-03-24T09:03:16;12.38;;;3.03;;
60502;SDS011;51448;51.660;5.824;2023-03-24T09:05:49;11.27;;;2.65;;
60502;SDS011;51448;51.660;5.824;2023-03-24T09:08:17;9.93;;;2.30;;
60502;SDS011;51448;51.660;5.824;2023-03-24T09:10:46;13.00;;;2.65;;
60502;SDS011;51448;51.660;5.824;2023-03-24T09:13:19;9.43;;;2.50;;
60502;SDS011;51448;51.660;5.824;2023-03-24T09:16:04;12.10;;;2.50;;
60502;SDS011;51448;51.660;5.824;2023-03-24T09:18:44;12.65;;;3.03;;
60502;SDS011;51448;51.660;5.824;2023-03-24T09:21:12;13.25;;;2.72;;
60502;SDS011;51448;51.660;5.824;2023-03-24T09:23:51;11.23;;;2.15;;
60502;SDS011;51448;51.660;5.824;2023-03-24T09:26:19;12.10;;;2.42;;
60502;SDS011;51448;51.660;5.824;2023-03-24T09:28:47;11.38;;;2.80;;
60502;SDS011;51448;51.660;5.824;2023-03-24T09:31:15;12.13;;;2.88;;
60502;SDS011;51448;51.660;5.824;2023-03-24T09:33:42;12.82;;;2.35;;
60502;SDS011;51448;51.660;5.824;2023-03-24T09:36:10;12.50;;;2.55;;
60502;SDS011;51448;51.660;5.824;2023-03-24T09:38:37;14.77;;;2.67;;
60502;SDS011;51448;51.660;5.824;2023-03-24T09:41:10;13.50;;;2.60;;
60502;SDS011;51448;51.660;5.824;2023-03-24T09:43:58;11.45;;;2.63;;
60502;SDS011;51448;51.660;5.824;2023-03-24T09:46:34;10.88;;;2.72;;
60502;SDS011;51448;51.660;5.824;2023-03-24T09:49:12;10.18;;;2.47;;
60502;SDS011;51448;51.660;5.824;2023-03-24T09:51:50;12.38;;;2.65;;
60502;SDS011;51448;51.660;5.824;2023-03-24T09:54:30;12.32;;;3.38;;
60502;SDS011;51448;51.660;5.824;2023-03-24T09:57:37;11.30;;;2.70;;
60502;SDS011;51448;51.660;5.824;2023-03-24T10:02:58;19.35;;;3.08;;
60502;SDS011;51448;51.660;5.824;2023-03-24T10:05:52;14.85;;;2.95;;
60502;SDS011;51448;51.660;5.824;2023-03-24T10:11:01;11.60;;;2.17;;
60502;SDS011;51448;51.660;5.824;2023-03-24T10:22:55;8.90;;;2.78;;
60502;SDS011;51448;51.660;5.824;2023-03-24T10:28:51;15.48;;;3.50;;
60502;SDS011;51448;51.660;5.824;2023-03-24T10:31:30;13.00;;;2.75;;
60502;SDS011;51448;51.660;5.824;2023-03-24T10:34:09;14.32;;;3.20;;
60502;SDS011;51448;51.660;5.824;2023-03-24T10:36:39;11.93;;;2.45;;
60502;SDS011;51448;51.660;5.824;2023-03-24T10:39:15;10.48;;;2.70;;
60502;SDS011;51448;51.660;5.824;2023-03-24T10:41:52;11.48;;;2.85;;
60502;SDS011;51448;51.660;5.824;2023-03-24T10:44:20;10.13;;;2.60;;
60502;SDS011;51448;51.660;5.824;2023-03-24T10:46:50;11.52;;;3.10;;
60502;SDS011;51448;51.660;5.824;2023-03-24T10:49:23;11.05;;;3.15;;
60502;SDS011;51448;51.660;5.824;2023-03-24T10:51:52;9.85;;;3.05;;
60502;SDS011;51448;51.660;5.824;2023-03-24T10:54:29;16.30;;;2.75;;
60502;SDS011;51448;51.660;5.824;2023-03-24T10:59:27;9.45;;;2.22;;
60502;SDS011;51448;51.660;5.824;2023-03-24T11:02:36;10.68;;;2.42;;
60502;SDS011;51448;51.660;5.824;2023-03-24T11:04:59;12.98;;;2.50;;
60502;SDS011;51448;51.660;5.824;2023-03-24T11:07:40;9.75;;;2.60;;
60502;SDS011;51448;51.660;5.824;2023-03-24T11:10:13;12.00;;;2.42;;
60502;SDS011;51448;51.660;5.824;2023-03-24T11:15:20;15.88;;;3.00;;
60502;SDS011;51448;51.660;5.824;2023-03-24T11:20:25;11.00;;;2.38;;
60502;SDS011;51448;51.660;5.824;2023-03-24T11:23:03;7.93;;;1.92;;
60502;SDS011;51448;51.660;5.824;2023-03-24T11:26:01;11.07;;;2.40;;
60502;SDS011;51448;51.660;5.824;2023-03-24T11:31:08;10.48;;;1.80;;
60502;SDS011;51448;51.660;5.824;2023-03-24T11:33:47;9.13;;;1.90;;
60502;SDS011;51448;51.660;5.824;2023-03-24T11:36:35;12.05;;;2.05;;
60502;SDS011;51448;51.660;5.824;2023-03-24T11:39:25;7.63;;;2.25;;
60502;SDS011;51448;51.660;5.824;2023-03-24T11:42:01;13.30;;;2.20;;
60502;SDS011;51448;51.660;5.824;2023-03-24T11:44:50;10.50;;;2.05;;
60502;SDS011;51448;51.660;5.824;2023-03-24T11:47:20;8.38;;;1.95;;
60502;SDS011;51448;51.660;5.824;2023-03-24T11:52:37;9.93;;;2.35;;
60502;SDS011;51448;51.660;5.824;2023-03-24T11:58:49;7.53;;;2.00;;
60502;SDS011;51448;51.660;5.824;2023-03-24T12:01:51;7.03;;;1.80;;
60502;SDS011;51448;51.660;5.824;2023-03-24T12:10:27;10.02;;;1.90;;
60502;SDS011;51448;51.660;5.824;2023-03-24T12:13:09;10.02;;;1.65;;
60502;SDS011;51448;51.660;5.824;2023-03-24T12:16:05;9.32;;;2.15;;
60502;SDS011;51448;51.660;5.824;2023-03-24T12:33:42;5.70;;;1.10;;
60502;SDS011;51448;51.660;5.824;2023-03-24T12:42:19;6.80;;;1.40;;
60502;SDS011;51448;51.660;5.824;2023-03-24T12:51:03;4.68;;;1.10;;
60502;SDS011;51448;51.660;5.824;2023-03-24T12:56:57;4.95;;;1.00;;
60502;SDS011;51448;51.660;5.824;2023-03-24T12:59:36;3.55;;;0.80;;
60502;SDS011;51448;51.660;5.824;2023-03-24T13:02:24;2.50;;;0.50;;
60502;SDS011;51448;51.660;5.824;2023-03-24T13:05:05;3.67;;;0.70;;
60502;SDS011;51448;51.660;5.824;2023-03-24T13:07:44;2.20;;;0.50;;
60502;SDS011;51448;51.660;5.824;2023-03-24T13:10:17;2.90;;;0.40;;
60502;SDS011;51448;51.660;5.824;2023-03-24T13:16:07;2.92;;;0.63;;
60502;SDS011;51448;51.660;5.824;2023-03-24T13:18:38;6.38;;;1.00;;
60502;SDS011;51448;51.660;5.824;2023-03-24T13:21:17;5.25;;;1.02;;
60502;SDS011;51448;51.660;5.824;2023-03-24T13:24:05;4.38;;;0.95;;
60502;SDS011;51448;51.660;5.824;2023-03-24T13:26:46;5.88;;;0.93;;
60502;SDS011;51448;51.660;5.824;2023-03-24T13:41:18;5.85;;;1.08;;
60502;SDS011;51448;51.660;5.824;2023-03-24T13:43:58;6.03;;;1.27;;
60502;SDS011;51448;51.660;5.824;2023-03-24T13:46:58;6.53;;;1.00;;
60502;SDS011;51448;51.660;5.824;2023-03-24T13:49:32;4.82;;;0.93;;
60502;SDS011;51448;51.660;5.824;2023-03-24T13:52:02;5.68;;;1.45;;
60502;SDS011;51448;51.660;5.824;2023-03-24T13:54:49;5.78;;;1.45;;
60502;SDS011;51448;51.660;5.824;2023-03-24T13:57:24;6.82;;;1.58;;
60502;SDS011;51448;51.660;5.824;2023-03-24T14:08:39;7.57;;;1.70;;
60502;SDS011;51448;51.660;5.824;2023-03-24T14:16:50;8.52;;;1.80;;
60502;SDS011;51448;51.660;5.824;2023-03-24T14:22:44;8.25;;;1.90;;
60502;SDS011;51448;51.660;5.824;2023-03-24T14:25:25;8.07;;;1.85;;
60502;SDS011;51448;51.660;5.824;2023-03-24T14:28:08;7.53;;;1.92;;
60502;SDS011;51448;51.660;5.824;2023-03-24T14:36:38;7.65;;;1.88;;
60502;SDS011;51448;51.660;5.824;2023-03-24T14:47:32;5.47;;;0.73;;
60502;SDS011;51448;51.660;5.824;2023-03-24T14:50:11;4.75;;;1.00;;
60502;SDS011;51448;51.660;5.824;2023-03-24T14:52:49;4.32;;;0.68;;
60502;SDS011;51448;51.660;5.824;2023-03-24T14:55:23;3.85;;;0.73;;
60502;SDS011;51448;51.660;5.824;2023-03-24T14:57:58;5.03;;;1.00;;
60502;SDS011;51448;51.660;5.824;2023-03-24T15:00:39;4.75;;;0.80;;
60502;SDS011;51448;51.660;5.824;2023-03-24T15:06:31;5.05;;;1.25;;
60502;SDS011;51448;51.660;5.824;2023-03-24T15:08:59;3.80;;;0.98;;
60502;SDS011;51448;51.660;5.824;2023-03-24T15:11:35;4.03;;;1.00;;
60502;SDS011;51448;51.660;5.824;2023-03-24T15:14:19;6.13;;;1.10;;
60502;SDS011;51448;51.660;5.824;2023-03-24T15:16:53;4.93;;;1.15;;
60502;SDS011;51448;51.660;5.824;2023-03-24T15:19:29;5.53;;;1.20;;
60502;SDS011;51448;51.660;5.824;2023-03-24T15:29:34;4.88;;;1.33;;
60502;SDS011;51448;51.660;5.824;2023-03-24T15:32:05;6.43;;;1.65;;
60502;SDS011;51448;51.660;5.824;2023-03-24T15:34:45;6.10;;;1.60;;
60502;SDS011;51448;51.660;5.824;2023-03-24T15:37:30;6.50;;;1.83;;
60502;SDS011;51448;51.660;5.824;2023-03-24T15:40:54;8.38;;;2.08;;
60502;SDS011;51448;51.660;5.824;2023-03-24T15:42:57;8.15;;;2.50;;
60502;SDS011;51448;51.660;5.824;2023-03-24T15:48:35;7.55;;;2.38;;
60502;SDS011;51448;51.660;5.824;2023-03-24T15:51:03;7.43;;;2.60;;
60502;SDS011;51448;51.660;5.824;2023-03-24T15:56:23;8.30;;;2.20;;
60502;SDS011;51448;51.660;5.824;2023-03-24T15:59:12;7.82;;;2.42;;
60502;SDS011;51448;51.660;5.824;2023-03-24T16:01:42;6.22;;;2.00;;
60502;SDS011;51448;51.660;5.824;2023-03-24T16:04:14;7.65;;;2.00;;
60502;SDS011;51448;51.660;5.824;2023-03-24T16:06:47;9.23;;;2.17;;
60502;SDS011;51448;51.660;5.824;2023-03-24T16:09:22;10.23;;;2.33;;
60502;SDS011;51448;51.660;5.824;2023-03-24T16:11:54;6.95;;;1.83;;
60502;SDS011;51448;51.660;5.824;2023-03-24T16:14:23;8.95;;;1.65;;
60502;SDS011;51448;51.660;5.824;2023-03-24T16:16:56;6.80;;;1.60;;
60502;SDS011;51448;51.660;5.824;2023-03-24T16:19:28;8.43;;;1.75;;
60502;SDS011;51448;51.660;5.824;2023-03-24T16:21:55;6.93;;;1.40;;
60502;SDS011;51448;51.660;5.824;2023-03-24T16:24:24;8.02;;;1.55;;
60502;SDS011;51448;51.660;5.824;2023-03-24T16:26:52;7.20;;;1.30;;
60502;SDS011;51448;51.660;5.824;2023-03-24T16:29:20;6.85;;;1.40;;
60502;SDS011;51448;51.660;5.824;2023-03-24T16:31:50;9.35;;;1.52;;
60502;SDS011;51448;51.660;5.824;2023-03-24T16:34:21;7.53;;;1.65;;
60502;SDS011;51448;51.660;5.824;2023-03-24T16:36:50;6.93;;;1.70;;
60502;SDS011;51448;51.660;5.824;2023-03-24T16:39:24;6.68;;;1.80;;
60502;SDS011;51448;51.660;5.824;2023-03-24T16:41:55;8.80;;;2.03;;
60502;SDS011;51448;51.660;5.824;2023-03-24T16:44:23;8.63;;;2.15;;
60502;SDS011;51448;51.660;5.824;2023-03-24T16:46:52;7.88;;;1.80;;
60502;SDS011;51448;51.660;5.824;2023-03-24T16:49:22;5.35;;;1.30;;
60502;SDS011;51448;51.660;5.824;2023-03-24T16:51:50;7.03;;;1.42;;
60502;SDS011;51448;51.660;5.824;2023-03-24T16:54:20;6.22;;;1.55;;
60502;SDS011;51448;51.660;5.824;2023-03-24T16:56:48;7.82;;;1.48;;
60502;SDS011;51448;51.660;5.824;2023-03-24T16:59:16;7.18;;;1.35;;
60502;SDS011;51448;51.660;5.824;2023-03-24T17:01:45;7.90;;;1.35;;
60502;SDS011;51448;51.660;5.824;2023-03-24T17:04:15;6.32;;;1.27;;
60502;SDS011;51448;51.660;5.824;2023-03-24T17:06:50;8.52;;;1.52;;
60502;SDS011;51448;51.660;5.824;2023-03-24T17:09:20;6.07;;;1.27;;
60502;SDS011;51448;51.660;5.824;2023-03-24T17:11:50;7.00;;;1.30;;
60502;SDS011;51448;51.660;5.824;2023-03-24T17:14:21;6.40;;;1.17;;
60502;SDS011;51448;51.660;5.824;2023-03-24T17:16:49;9.20;;;1.65;;
60502;SDS011;51448;51.660;5.824;2023-03-24T17:19:21;6.97;;;1.50;;
60502;SDS011;51448;51.660;5.824;2023-03-24T17:21:54;6.38;;;1.30;;
60502;SDS011;51448;51.660;5.824;2023-03-24T17:24:31;7.72;;;1.30;;
60502;SDS011;51448;51.660;5.824;2023-03-24T17:27:02;7.55;;;1.50;;
60502;SDS011;51448;51.660;5.824;2023-03-24T17:29:44;5.80;;;1.17;;
60502;SDS011;51448;51.660;5.824;2023-03-24T17:32:12;6.15;;;1.30;;
60502;SDS011;51448;51.660;5.824;2023-03-24T17:34:46;7.72;;;1.85;;
60502;SDS011;51448;51.660;5.824;2023-03-24T17:37:14;7.70;;;1.30;;
60502;SDS011;51448;51.660;5.824;2023-03-24T17:39:42;7.32;;;1.40;;
60502;SDS011;51448;51.660;5.824;2023-03-24T17:42:10;8.20;;;1.38;;
60502;SDS011;51448;51.660;5.824;2023-03-24T17:44:38;5.90;;;1.50;;
60502;SDS011;51448;51.660;5.824;2023-03-24T17:47:05;5.75;;;1.48;;
60502;SDS011;51448;51.660;5.824;2023-03-24T17:49:33;7.35;;;1.60;;
60502;SDS011;51448;51.660;5.824;2023-03-24T17:52:01;7.80;;;1.73;;
60502;SDS011;51448;51.660;5.824;2023-03-24T17:54:28;7.93;;;1.60;;
60502;SDS011;51448;51.660;5.824;2023-03-24T17:56:56;7.80;;;1.75;;
60502;SDS011;51448;51.660;5.824;2023-03-24T17:59:24;8.15;;;1.67;;
60502;SDS011;51448;51.660;5.824;2023-03-24T18:01:52;9.70;;;2.13;;
60502;SDS011;51448;51.660;5.824;2023-03-24T18:04:19;8.45;;;2.10;;
60502;SDS011;51448;51.660;5.824;2023-03-24T18:06:49;8.65;;;1.90;;
60502;SDS011;51448;51.660;5.824;2023-03-24T18:09:17;6.55;;;1.55;;
60502;SDS011;51448;51.660;5.824;2023-03-24T18:11:45;8.93;;;2.20;;
60502;SDS011;51448;51.660;5.824;2023-03-24T18:14:13;7.57;;;1.88;;
60502;SDS011;51448;51.660;5.824;2023-03-24T18:16:41;6.43;;;1.98;;
60502;SDS011;51448;51.660;5.824;2023-03-24T18:19:09;9.00;;;3.03;;
60502;SDS011;51448;51.660;5.824;2023-03-24T18:21:37;8.07;;;1.73;;
60502;SDS011;51448;51.660;5.824;2023-03-24T18:24:06;6.13;;;1.50;;
60502;SDS011;51448;51.660;5.824;2023-03-24T18:26:35;7.53;;;1.80;;
60502;SDS011;51448;51.660;5.824;2023-03-24T18:29:02;7.53;;;1.70;;
60502;SDS011;51448;51.660;5.824;2023-03-24T18:31:32;7.97;;;2.17;;
60502;SDS011;51448;51.660;5.824;2023-03-24T18:33:59;9.57;;;2.50;;
60502;SDS011;51448;51.660;5.824;2023-03-24T18:36:27;7.82;;;1.83;;
60502;SDS011;51448;51.660;5.824;2023-03-24T18:39:06;9.60;;;2.40;;
60502;SDS011;51448;51.660;5.824;2023-03-24T18:41:35;11.48;;;2.83;;
60502;SDS011;51448;51.660;5.824;2023-03-24T18:44:05;8.65;;;2.75;;